首页
METAR-TAF:

METAR-TAF

机场 :

大加那利机场

大加那利岛, 西班牙

纬度: 27-56N, 经度: 015-23W, 海拔: 23米

当前天气观测

该预报发布于18分钟前的11:30 UTC
风速15节,风向,在北转西北北转东北之间变化
温度 24°C
湿度 54%
气压 1016 hPa
能见度10公里或以上
少量云层高于3500英尺
散云层高于4500英尺

METAR: GCLP 191130Z 36015KT 330V030 9999 FEW035 SCT045 24/14 Q1016 NOSIG

时间: 12:48 (11:48 UTC)

预报

该预报发布于3小时和48分钟前的08:00 UTC
预报有效从19日的 09点(UTC)到 20日的 09点(UTC)
风速18节,风向
能见度10公里或以上
散云层高于4000英尺
几率 30% :
短暂存在
从 19日的 12点(UTC)到 19日的 21点(UTC)
毛毛雨, 雨

TAF: GCLP 190800Z 1909/2009 36018KT 9999 SCT040 TX25/1915Z TN20/2005Z PROB30 TEMPO 1912/1921 DZRA

超过4000个机场的气象观测和天气预报(METAR&TAF报告)。

可查询的气象台以黄色和红色小点在地图上表示。

将鼠标移到小点上方,可查看气象台名称。

然后点击查看天气观测和预报。

如需切换地图:点击带黑十字的绿色按钮放大地图;点击带横线的绿色按钮缩小地图;或者点击绿色箭头查看邻近地区的地图。


METAR-TAF: